createdAt,value
2022-10-30T00:00:39.258Z,99302.53
2022-10-30T00:03:06.340Z,99299.41
2022-10-30T00:05:33.001Z,99298.69
2022-10-30T00:08:00.099Z,99294.38
2022-10-30T00:10:27.071Z,99292.56
2022-10-30T00:12:54.330Z,99287.81
2022-10-30T00:15:20.910Z,99286.13
2022-10-30T00:17:47.464Z,99296.31
2022-10-30T00:20:14.110Z,99281.59
2022-10-30T00:22:40.640Z,99289.31
2022-10-30T00:25:07.665Z,99286.63
2022-10-30T00:27:34.228Z,99283.41
2022-10-30T00:30:00.832Z,99285.63
2022-10-30T00:32:28.131Z,99279.47
2022-10-30T00:34:54.725Z,99279.47
2022-10-30T00:37:21.438Z,99276.09
2022-10-30T00:39:48.081Z,99279.47
2022-10-30T00:42:16.104Z,99268.84
2022-10-30T00:44:45.645Z,99276.94
2022-10-30T00:47:15.687Z,99268.34
2022-10-30T00:50:01.184Z,99267.50
2022-10-30T00:52:31.851Z,99264.50
2022-10-30T00:55:03.853Z,99257.50
2022-10-30T00:57:30.400Z,99263.75
2022-10-30T00:59:57.478Z,99263.31
2022-10-30T01:02:24.276Z,99258.00
2022-10-30T01:04:53.398Z,99255.34
2022-10-30T01:07:20.043Z,99257.03
2022-10-30T01:09:48.073Z,99258.44
2022-10-30T01:12:15.567Z,99261.38
2022-10-30T01:14:47.819Z,99257.56
2022-10-30T01:17:35.496Z,99259.47
2022-10-30T01:20:26.876Z,99267.72
2022-10-30T01:23:06.820Z,99258.06
2022-10-30T01:25:33.374Z,99258.00
2022-10-30T01:28:15.927Z,99258.00
2022-10-30T01:31:13.705Z,99251.97
2022-10-30T01:34:12.168Z,99246.19
2022-10-30T01:36:46.217Z,99239.94
2022-10-30T01:39:28.150Z,99251.41
2022-10-30T01:41:54.822Z,99246.78
2022-10-30T01:44:31.737Z,99250.28
2022-10-30T01:47:15.085Z,99243.03
2022-10-30T01:50:19.157Z,99240.94
2022-10-30T01:53:00.056Z,99244.84
2022-10-30T01:55:35.388Z,99243.03
2022-10-30T01:58:20.213Z,99238.81
2022-10-30T02:00:52.699Z,99231.25
2022-10-30T02:03:19.736Z,99231.25
2022-10-30T02:05:49.710Z,99234.00
2022-10-30T02:08:17.296Z,99229.53
2022-10-30T02:10:46.281Z,99234.41
2022-10-30T02:13:13.309Z,99240.09
2022-10-30T02:15:41.814Z,99236.34
2022-10-30T02:18:09.485Z,99243.81
2022-10-30T02:20:37.135Z,99230.38
2022-10-30T02:23:04.619Z,99229.03
2022-10-30T02:25:31.397Z,99214.66
2022-10-30T02:27:58.077Z,99229.50
2022-10-30T02:30:24.713Z,99230.47
2022-10-30T02:32:51.267Z,99230.72
2022-10-30T02:35:17.812Z,99225.63
2022-10-30T02:37:44.405Z,99226.34
2022-10-30T02:40:12.343Z,99225.72
2022-10-30T02:42:38.974Z,99217.13
2022-10-30T02:45:05.906Z,99220.50
2022-10-30T02:47:33.961Z,99211.81
2022-10-30T02:50:00.550Z,99202.88
2022-10-30T02:52:27.158Z,99198.25
2022-10-30T02:54:53.713Z,99209.28
2022-10-30T02:57:20.250Z,99205.97
2022-10-30T02:59:46.850Z,99204.03
2022-10-30T03:02:13.439Z,99212.38
2022-10-30T03:04:40.086Z,99205.69
2022-10-30T03:07:06.681Z,99203.75
2022-10-30T03:09:33.263Z,99202.25
2022-10-30T03:11:59.868Z,99208.81
2022-10-30T03:14:26.758Z,99191.19
2022-10-30T10:39:07.587Z,99231.41
2022-10-30T10:41:34.132Z,99219.78
2022-10-30T10:44:15.134Z,99226.25
2022-10-30T10:47:14.085Z,99223.19
2022-10-30T10:49:52.649Z,99217.19
2022-10-30T10:52:24.807Z,99221.38
2022-10-30T10:55:05.111Z,99217.69
2022-10-30T10:57:37.991Z,99216.56
2022-10-30T11:00:14.083Z,99208.25
2022-10-30T11:02:42.361Z,99203.50
2022-10-30T11:05:36.335Z,99206.94
2022-10-30T11:08:33.116Z,99201.84
2022-10-30T11:11:01.982Z,99197.78
2022-10-30T11:13:31.984Z,99201.75
2022-10-30T11:16:29.466Z,99200.38
2022-10-30T11:19:00.469Z,99206.13
2022-10-30T11:21:29.712Z,99204.09
2022-10-30T11:23:56.268Z,99200.56
2022-10-30T11:26:25.537Z,99208.91
2022-10-30T11:28:57.346Z,99208.19
2022-10-30T11:31:37.788Z,99200.41
2022-10-30T11:34:19.923Z,99205.59
2022-10-30T11:36:49.130Z,99200.38
2022-10-30T11:39:24.899Z,99199.09
2022-10-30T11:41:54.769Z,99193.38
2022-10-30T11:44:30.740Z,99200.00
2022-10-30T11:46:58.390Z,99193.78
2022-10-30T11:49:48.397Z,99190.97
2022-10-30T11:52:18.439Z,99193.94
2022-10-30T11:54:50.738Z,99192.16
2022-10-30T11:57:46.386Z,99188.84
2022-10-30T12:00:28.104Z,99192.41
2022-10-30T12:02:58.543Z,99189.28
2022-10-30T12:05:25.288Z,99187.09
2022-10-30T12:07:53.348Z,99185.22
2022-10-30T12:10:28.165Z,99176.72
2022-10-30T12:12:55.257Z,99175.38
2022-10-30T12:15:26.526Z,99182.63
2022-10-30T12:17:55.348Z,99186.91
2022-10-30T12:20:22.211Z,99178.66
2022-10-30T12:22:49.524Z,99175.88
2022-10-30T12:25:40.161Z,99174.31
2022-10-30T12:28:16.640Z,99173.16
2022-10-30T12:30:50.184Z,99176.19
2022-10-30T12:33:50.112Z,99165.06
2022-10-30T12:36:28.053Z,99166.75
2022-10-30T12:39:22.230Z,99163.91
2022-10-30T12:42:01.625Z,99158.59
2022-10-30T12:44:37.074Z,99152.38
2022-10-30T12:47:03.697Z,99156.78
2022-10-30T12:50:09.205Z,99150.31
2022-10-30T12:52:53.919Z,99152.84
2022-10-30T12:55:40.550Z,99145.28
2022-10-30T12:58:26.293Z,99148.59
2022-10-30T13:01:13.113Z,99141.47
2022-10-30T13:03:48.651Z,99132.78
2022-10-30T13:06:19.552Z,99136.41
2022-10-30T13:09:15.545Z,99132.66
2022-10-30T13:11:52.803Z,99134.28
2022-10-30T13:14:22.537Z,99122.44
2022-10-30T13:16:51.041Z,99126.91
2022-10-30T13:19:17.657Z,99120.06
2022-10-30T13:22:00.603Z,99124.72
2022-10-30T13:25:05.276Z,99107.75
2022-10-30T13:27:31.835Z,99112.75
2022-10-30T13:30:07.194Z,99114.56
2022-10-30T13:32:39.999Z,99111.66
2022-10-30T13:35:21.978Z,99109.81
2022-10-30T13:38:25.976Z,99109.03
2022-10-30T13:40:56.331Z,99103.72
2022-10-30T13:43:31.067Z,99107.22
2022-10-30T13:46:26.630Z,99102.66
2022-10-30T13:49:02.384Z,99104.69
2022-10-30T13:52:10.362Z,99100.88
2022-10-30T13:54:42.550Z,99096.66
2022-10-30T13:57:15.108Z,99102.75
2022-10-30T13:59:49.363Z,99094.88
2022-10-30T14:03:05.396Z,99099.88
2022-10-30T14:06:03.012Z,99103.41
2022-10-30T14:08:56.588Z,99102.22
2022-10-30T14:11:23.211Z,99099.19
2022-10-30T14:13:58.378Z,99099.47
2022-10-30T14:17:09.713Z,99097.28
2022-10-30T14:20:12.487Z,99103.22
2022-10-30T14:22:41.167Z,99109.25
2022-10-30T14:25:16.180Z,99103.25
2022-10-30T14:27:43.172Z,99098.22
2022-10-30T14:30:20.380Z,99103.47
2022-10-30T14:32:53.847Z,99104.31
2022-10-30T14:35:35.873Z,99113.22
2022-10-30T14:38:08.788Z,99115.94
2022-10-30T14:40:42.090Z,99116.97
2022-10-30T14:43:42.746Z,99116.06
2022-10-30T14:46:32.232Z,99121.03
2022-10-30T14:49:24.159Z,99120.13
2022-10-30T14:52:32.741Z,99119.84
2022-10-30T14:55:05.309Z,99123.59
2022-10-30T14:57:51.485Z,99126.09
2022-10-30T15:00:23.934Z,99125.66
2022-10-30T15:02:56.642Z,99130.59
2022-10-30T15:05:32.497Z,99125.94
2022-10-30T15:08:31.139Z,99126.69
2022-10-30T15:10:57.755Z,99126.56
2022-10-30T15:13:24.457Z,99123.63
2022-10-30T15:15:59.909Z,99128.50
2022-10-30T15:18:30.527Z,99127.97
2022-10-30T15:21:06.671Z,99133.66
2022-10-30T15:23:36.011Z,99123.22
2022-10-30T15:26:09.719Z,99128.59
2022-10-30T15:28:38.919Z,99131.59
2022-10-30T15:31:05.724Z,99138.03
2022-10-30T15:33:35.514Z,99129.69
2022-10-30T15:36:02.352Z,99130.78
2022-10-30T15:38:29.318Z,99133.03
2022-10-30T15:41:02.187Z,99129.22
2022-10-30T15:43:33.666Z,99125.53
2022-10-30T15:46:00.469Z,99131.03
2022-10-30T15:48:33.812Z,99129.16
2022-10-30T15:51:15.575Z,99129.41
2022-10-30T15:53:53.239Z,99137.56
2022-10-30T15:56:31.220Z,99138.63
2022-10-30T15:59:01.807Z,99146.31
2022-10-30T16:01:44.794Z,99147.94
2022-10-30T16:04:25.034Z,99149.78
2022-10-30T16:06:57.629Z,99151.22
2022-10-30T16:09:25.620Z,99149.47
2022-10-30T16:11:55.361Z,99147.50
2022-10-30T16:14:24.720Z,99159.13
2022-10-30T16:16:52.063Z,99153.53
2022-10-30T16:19:28.043Z,99155.25
2022-10-30T16:21:57.740Z,99156.28
2022-10-30T16:24:35.256Z,99151.13
2022-10-30T16:27:18.230Z,99155.03
2022-10-30T16:29:46.967Z,99153.91
2022-10-30T16:32:17.596Z,99148.91
2022-10-30T16:34:46.190Z,99149.78
2022-10-30T16:37:21.179Z,99147.81
2022-10-30T16:39:50.796Z,99144.97
2022-10-30T16:42:22.041Z,99144.50
2022-10-30T16:44:48.873Z,99149.69
2022-10-30T16:47:25.843Z,99150.19
2022-10-30T16:49:56.684Z,99155.25
2022-10-30T16:52:28.389Z,99148.03
2022-10-30T16:55:07.905Z,99157.09
2022-10-30T16:57:42.622Z,99156.59
2022-10-30T17:00:24.429Z,99166.97
2022-10-30T17:02:56.197Z,99173.53
2022-10-30T17:05:34.301Z,99170.34
2022-10-30T17:08:04.423Z,99168.66
2022-10-30T17:10:35.232Z,99179.38
2022-10-30T17:13:36.203Z,99180.88
2022-10-30T17:16:29.577Z,99176.88
2022-10-30T17:19:02.101Z,99184.91
2022-10-30T17:21:38.412Z,99183.72
2022-10-30T17:24:05.464Z,99190.88
2022-10-30T17:26:41.042Z,99186.34
2022-10-30T17:29:36.738Z,99189.53
2022-10-30T17:32:20.341Z,99186.28
2022-10-30T17:34:48.246Z,99187.13
2022-10-30T17:37:14.905Z,99196.16
2022-10-30T17:39:41.562Z,99190.31
2022-10-30T17:42:10.238Z,99200.28
2022-10-30T17:44:37.524Z,99198.09
2022-10-30T17:47:18.724Z,99204.63
2022-10-30T17:49:46.005Z,99204.31
2022-10-30T17:52:21.919Z,99209.31
2022-10-30T17:54:48.792Z,99212.50
2022-10-30T17:57:16.758Z,99213.97
2022-10-30T17:59:43.696Z,99206.81
2022-10-30T18:02:19.137Z,99209.31
2022-10-30T18:04:47.810Z,99204.47
2022-10-30T18:07:16.381Z,99208.56
2022-10-30T18:09:43.906Z,99210.50
2022-10-30T18:12:17.148Z,99208.81
2022-10-30T18:14:45.690Z,99210.19
2022-10-30T18:17:12.901Z,99209.50
2022-10-30T18:19:39.700Z,99213.19
2022-10-30T18:22:06.365Z,99209.19
2022-10-30T18:24:33.058Z,99219.09
2022-10-30T18:26:59.730Z,99215.56
2022-10-30T18:29:26.363Z,99215.09
2022-10-30T18:31:52.984Z,99214.41
2022-10-30T18:34:21.644Z,99219.28
2022-10-30T18:36:48.874Z,99215.41
2022-10-30T18:39:15.661Z,99211.22
2022-10-30T18:41:46.590Z,99217.75
2022-10-30T18:44:15.777Z,99218.94
2022-10-30T18:46:43.132Z,99223.78
2022-10-30T18:49:10.083Z,99224.47
2022-10-30T18:51:37.268Z,99226.31
2022-10-30T18:54:07.969Z,99220.94
2022-10-30T18:56:34.520Z,99228.97
2022-10-30T18:59:02.535Z,99234.00
2022-10-30T19:01:33.317Z,99222.28
2022-10-30T19:04:04.549Z,99228.31
2022-10-30T19:06:34.360Z,99224.25
2022-10-30T19:09:01.374Z,99222.94
2022-10-30T19:11:30.839Z,99230.31
2022-10-30T19:13:58.328Z,99226.13
2022-10-30T19:16:25.445Z,99225.28
2022-10-30T19:18:52.801Z,99226.44
2022-10-30T19:21:22.663Z,99234.66
2022-10-30T19:23:49.733Z,99235.00
2022-10-30T19:26:17.579Z,99233.00
2022-10-30T19:28:45.419Z,99239.03
2022-10-30T19:31:16.809Z,99235.34
2022-10-30T19:33:44.057Z,99237.00
2022-10-30T19:36:26.287Z,99238.38
2022-10-30T19:38:52.950Z,99247.72
2022-10-30T19:41:19.745Z,99249.22
2022-10-30T19:43:46.419Z,99250.59
2022-10-30T19:46:14.758Z,99253.09
2022-10-30T19:48:56.767Z,99245.56
2022-10-30T19:51:24.109Z,99255.44
2022-10-30T19:53:52.696Z,99252.38
2022-10-30T19:56:20.345Z,99251.72
2022-10-30T19:58:46.973Z,99250.25
2022-10-30T20:01:14.244Z,99259.78
2022-10-30T20:03:40.936Z,99268.66
2022-10-30T20:06:07.729Z,99262.09
2022-10-30T20:08:34.376Z,99269.16
2022-10-30T20:11:02.399Z,99282.03
2022-10-30T20:13:30.275Z,99272.47
2022-10-30T20:15:59.310Z,99275.31
2022-10-30T20:18:31.658Z,99277.63
2022-10-30T20:21:00.745Z,99285.84
2022-10-30T20:23:28.064Z,99278.81
2022-10-30T20:25:59.873Z,99280.78
2022-10-30T20:28:31.504Z,99293.50
2022-10-30T20:30:58.200Z,99288.59
2022-10-30T20:33:27.986Z,99293.28
2022-10-30T20:35:55.278Z,99291.72
2022-10-30T20:38:29.261Z,99287.66
2022-10-30T20:40:57.304Z,99294.63
2022-10-30T20:43:32.976Z,99304.09
2022-10-30T20:46:00.747Z,99306.91
2022-10-30T20:48:28.783Z,99301.88
2022-10-30T20:50:59.795Z,99306.16
2022-10-30T20:53:26.892Z,99307.16
2022-10-30T20:55:53.499Z,99312.44
2022-10-30T20:58:20.344Z,99312.22
2022-10-30T21:00:47.649Z,99310.31
2022-10-30T21:03:14.903Z,99315.63
2022-10-30T21:05:45.103Z,99312.72
2022-10-30T21:08:14.130Z,99316.69
2022-10-30T21:10:41.760Z,99318.84
2022-10-30T21:13:09.560Z,99315.94
2022-10-30T21:15:42.926Z,99314.53
2022-10-30T21:18:10.839Z,99315.66
2022-10-30T21:20:37.835Z,99320.25
2022-10-30T21:23:05.242Z,99327.88
2022-10-30T21:25:32.634Z,99323.06
2022-10-30T21:27:59.984Z,99321.00
2022-10-30T21:30:27.517Z,99323.44
2022-10-30T21:32:54.099Z,99324.75
2022-10-30T21:35:21.005Z,99329.31
2022-10-30T21:37:47.681Z,99322.16
2022-10-30T21:40:14.404Z,99328.47
2022-10-30T21:42:41.052Z,99325.41
2022-10-30T21:45:08.728Z,99326.03
2022-10-30T21:47:35.408Z,99327.00
2022-10-30T21:50:06.277Z,99323.50
2022-10-30T21:52:36.208Z,99323.66
2022-10-30T21:55:03.101Z,99327.53
2022-10-30T21:57:29.795Z,99323.78
2022-10-30T21:59:58.851Z,99326.72
2022-10-30T22:02:28.359Z,99334.34
2022-10-30T22:04:55.289Z,99332.88
2022-10-30T22:07:21.979Z,99324.34
2022-10-30T22:09:48.584Z,99332.25
2022-10-30T22:12:15.150Z,99331.19
2022-10-30T22:14:41.775Z,99334.25
2022-10-30T22:17:08.802Z,99336.81
2022-10-30T22:19:35.434Z,99331.78
2022-10-30T22:22:02.030Z,99327.44
2022-10-30T22:24:28.657Z,99335.31
2022-10-30T22:26:55.280Z,99337.28
2022-10-30T22:29:21.979Z,99339.41
2022-10-30T22:31:49.769Z,99342.09
2022-10-30T22:34:16.373Z,99346.56
2022-10-30T22:36:43.065Z,99349.25
2022-10-30T22:39:13.834Z,99347.53
2022-10-30T22:41:41.431Z,99356.78
2022-10-30T22:44:12.586Z,99360.72
2022-10-30T22:46:39.401Z,99355.94
2022-10-30T22:49:07.199Z,99360.69
2022-10-30T22:51:36.582Z,99359.50
2022-10-30T22:54:04.013Z,99367.31
2022-10-30T22:56:36.165Z,99360.84
2022-10-30T22:59:08.170Z,99363.69
2022-10-30T23:01:36.811Z,99365.34
2022-10-30T23:04:05.327Z,99371.38
2022-10-30T23:06:34.252Z,99370.94
2022-10-30T23:09:03.569Z,99369.78
2022-10-30T23:11:30.514Z,99376.19
2022-10-30T23:13:57.454Z,99373.94
2022-10-30T23:16:26.005Z,99374.78
2022-10-30T23:18:55.446Z,99381.75
2022-10-30T23:21:23.118Z,99384.22
2022-10-30T23:23:50.334Z,99385.47
2022-10-30T23:26:21.572Z,99381.63
2022-10-30T23:28:49.645Z,99380.22
2022-10-30T23:31:25.630Z,99377.69
2022-10-30T23:33:54.304Z,99387.03
2022-10-30T23:36:21.172Z,99382.50
2022-10-30T23:38:55.748Z,99393.28
2022-10-30T23:41:24.604Z,99393.13
2022-10-30T23:43:59.489Z,99398.00
2022-10-30T23:46:27.310Z,99394.03
2022-10-30T23:48:54.070Z,99386.47
2022-10-30T23:51:21.579Z,99392.88
2022-10-30T23:53:48.716Z,99393.84
2022-10-30T23:56:16.316Z,99398.38
2022-10-30T23:58:47.334Z,99388.84
